Time;durP1;ratioP1;P1;durP2;ratioP2;P2;SDS_P1;SDS_P2;PMS_P1;PMS_P2;Temp;Humidity;BMP_temperature;BMP_pressure;BME280_temperature;BME280_humidity;BME280_pressure;Samples;Min_cycle;Max_cycle;Signal;HPM_P1;HPM_P2
2021/03/09 00:00:28;;;;;;;55.90;22.27;;;;;;;19.41;13.47;98616.59;5059045;28;20025;-81
2021/03/09 00:02:55;;;;;;;52.55;21.40;;;;;;;19.42;13.43;98622.97;5058308;28;20515;-81
2021/03/09 00:05:21;;;;;;;52.65;21.20;;;;;;;19.41;13.75;98627.75;5061487;28;20150;-80
2021/03/09 00:07:47;;;;;;;50.75;19.42;;;;;;;19.31;13.86;98625.66;5058789;28;20108;-79
2021/03/09 00:10:13;;;;;;;53.80;21.90;;;;;;;19.04;13.64;98629.88;5043440;28;20468;-81
2021/03/09 00:12:39;;;;;;;52.47;19.13;;;;;;;18.41;13.83;98621.75;5059134;28;20033;-80
2021/03/09 00:15:06;;;;;;;51.90;20.05;;;;;;;18.62;14.57;98619.22;5062397;28;20112;-80
2021/03/09 00:17:33;;;;;;;48.78;20.88;;;;;;;18.99;14.00;98619.09;5060163;28;20021;-80
2021/03/09 00:20:01;;;;;;;60.58;21.98;;;;;;;19.09;13.69;98621.94;5062205;28;20067;-80
2021/03/09 00:22:27;;;;;;;55.17;20.75;;;;;;;19.14;13.76;98617.97;5061619;28;20075;-81
2021/03/09 00:24:53;;;;;;;44.80;18.65;;;;;;;18.85;13.67;98616.19;5058132;28;20033;-81
2021/03/09 00:27:19;;;;;;;61.70;23.42;;;;;;;18.60;13.73;98618.75;5061663;28;20071;-81
2021/03/09 00:29:45;;;;;;;58.40;22.92;;;;;;;18.65;13.84;98615.63;5061365;28;20087;-81
2021/03/09 00:32:11;;;;;;;50.65;22.10;;;;;;;18.74;14.02;98616.09;5061740;28;20032;-81
2021/03/09 00:34:38;;;;;;;63.25;23.60;;;;;;;18.84;13.82;98620.16;5061597;28;20025;-81
2021/03/09 00:37:05;;;;;;;58.78;21.92;;;;;;;18.95;13.74;98621.81;5060027;28;20040;-81
2021/03/09 00:39:31;;;;;;;54.53;22.33;;;;;;;18.99;13.53;98611.53;5070215;28;20040;-80
2021/03/09 00:41:58;;;;;;;55.05;22.67;;;;;;;18.93;13.29;98621.41;5057681;28;20074;-81
2021/03/09 00:44:24;;;;;;;67.43;24.58;;;;;;;19.01;13.24;98619.50;5063360;28;20041;-81
2021/03/09 00:46:51;;;;;;;62.88;24.58;;;;;;;19.06;13.09;98619.13;5063457;28;20036;-81
2021/03/09 00:49:18;;;;;;;57.72;22.90;;;;;;;18.98;13.58;98611.91;5040492;28;20424;-81
2021/03/09 00:51:44;;;;;;;66.50;24.23;;;;;;;18.89;13.54;98620.59;5059696;28;20400;-81
2021/03/09 00:54:11;;;;;;;58.78;21.45;;;;;;;18.73;13.30;98611.75;5040528;28;20565;-81
2021/03/09 00:56:37;;;;;;;56.42;21.27;;;;;;;18.32;13.66;98615.72;5058881;28;20523;-79
2021/03/09 00:59:03;;;;;;;62.90;25.38;;;;;;;18.14;14.08;98615.53;5058332;28;20037;-80
2021/03/09 01:01:29;;;;;;;69.03;25.45;;;;;;;18.27;14.25;98608.53;5042085;28;20029;-80
2021/03/09 01:03:55;;;;;;;64.78;26.05;;;;;;;18.05;13.91;98611.44;5059732;28;20060;-80
2021/03/09 01:06:21;;;;;;;67.18;26.65;;;;;;;17.86;14.33;98606.88;5071171;28;20029;-79
2021/03/09 01:08:47;;;;;;;58.78;22.58;;;;;;;17.55;14.29;98616.41;5059160;28;20029;-79
2021/03/09 01:11:13;;;;;;;65.07;24.50;;;;;;;17.88;14.20;98610.88;5061545;28;20025;-79
2021/03/09 01:13:40;;;;;;;78.97;26.25;;;;;;;18.23;14.06;98616.00;5058502;28;20484;-79
2021/03/09 01:16:06;;;;;;;68.10;28.38;;;;;;;18.29;13.88;98619.25;5057474;28;20492;-80
2021/03/09 01:18:32;;;;;;;69.57;25.92;;;;;;;18.48;13.73;98610.72;5058375;28;20060;-79
2021/03/09 01:20:58;;;;;;;70.90;26.05;;;;;;;18.23;13.67;98601.31;5059859;28;20029;-80
2021/03/09 01:23:24;;;;;;;65.38;26.80;;;;;;;18.17;14.05;98598.09;5056671;28;20025;-79
2021/03/09 01:25:50;;;;;;;66.13;24.20;;;;;;;17.75;14.53;98605.97;5057752;28;20036;-79
2021/03/09 01:28:16;;;;;;;63.58;24.88;;;;;;;17.66;13.96;98595.16;5056972;28;20095;-79
2021/03/09 01:30:43;;;;;;;61.72;24.25;;;;;;;17.95;13.90;98602.63;5062875;28;20086;-79
2021/03/09 01:33:09;;;;;;;68.90;24.77;;;;;;;18.28;13.40;98595.41;5059163;28;20499;-79
2021/03/09 01:35:35;;;;;;;57.42;23.40;;;;;;;18.40;13.51;98595.13;5059960;28;20060;-79
2021/03/09 01:38:01;;;;;;;67.68;23.02;;;;;;;18.23;13.84;98592.97;5059862;28;20029;-79
2021/03/09 01:40:27;;;;;;;60.00;24.02;;;;;;;17.84;14.23;98595.34;5057827;28;20087;-79
2021/03/09 01:42:53;;;;;;;64.75;24.40;;;;;;;17.61;14.25;98601.03;5057813;28;20036;-79
2021/03/09 01:45:20;;;;;;;57.53;23.17;;;;;;;17.67;14.31;98602.28;5062679;28;20057;-79
2021/03/09 01:47:49;;;;;;;53.53;21.48;;;;;;;18.02;13.78;98590.78;5056915;28;20086;-79
2021/03/09 01:50:19;;;;;;;52.47;20.00;;;;;;;18.12;13.60;98592.06;5059914;28;20051;-78
2021/03/09 01:52:48;;;;;;;45.10;19.48;;;;;;;18.30;13.74;98593.84;5062043;28;20380;-78
2021/03/09 01:55:14;;;;;;;66.05;25.58;;;;;;;18.03;13.81;98597.16;5058123;28;20541;-79
2021/03/09 01:57:41;;;;;;;62.30;23.20;;;;;;;18.11;13.39;98591.28;5061276;28;20029;-79
2021/03/09 02:00:09;;;;;;;63.13;23.70;;;;;;;18.16;13.41;98593.72;5061043;28;20033;-79
2021/03/09 02:02:35;;;;;;;60.85;24.02;;;;;;;18.33;13.44;98597.84;5064730;28;20025;-79
2021/03/09 02:05:07;;;;;;;60.63;21.80;;;;;;;17.90;14.03;98596.59;5060600;28;20112;-79
2021/03/09 02:07:33;;;;;;;50.72;21.10;;;;;;;18.10;14.06;98589.69;5060722;28;20484;-79
2021/03/09 02:10:00;;;;;;;56.55;23.00;;;;;;;17.71;14.08;98591.25;5066962;28;20032;-79
2021/03/09 02:12:37;;;;;;;62.05;23.77;;;;;;;17.46;14.19;98595.63;5057732;28;20025;-79
2021/03/09 02:15:23;;;;;;;60.03;22.92;;;;;;;17.13;14.54;98590.84;5048408;28;20110;-80
2021/03/09 02:18:08;;;;;;;63.67;24.25;;;;;;;17.33;14.21;98588.75;5047712;28;20423;-80
2021/03/09 02:20:37;;;;;;;58.75;21.95;;;;;;;17.72;13.74;98581.72;5058981;28;20031;-80
2021/03/09 02:23:40;;;;;;;66.07;23.45;;;;;;;18.03;13.56;98588.81;5061885;28;20484;-80
2021/03/09 02:26:31;;;;;;;64.13;25.02;;;;;;;17.74;13.52;98587.69;5004648;28;20041;-79
2021/03/09 02:29:12;;;;;;;56.00;22.88;;;;;;;17.84;13.52;98579.50;5057770;28;20397;-80
2021/03/09 02:31:40;;;;;;;62.05;23.85;;;;;;;17.85;13.69;98572.75;5060996;28;20071;-80
2021/03/09 02:34:12;;;;;;;62.40;25.13;;;;;;;18.03;13.40;98574.91;5060767;28;20043;-80
2021/03/09 02:36:40;;;;;;;60.47;22.05;;;;;;;18.10;13.23;98578.56;5056986;28;20033;-80
2021/03/09 02:39:12;;;;;;;65.78;21.92;;;;;;;18.15;13.07;98580.19;5063783;28;20033;-80
2021/03/09 02:41:46;;;;;;;50.33;19.98;;;;;;;18.28;12.91;98579.53;5059441;28;22275;-80
2021/03/09 02:44:20;;;;;;;61.63;22.27;;;;;;;18.37;12.86;98588.34;5060616;28;20040;-80
2021/03/09 02:46:48;;;;;;;63.97;23.77;;;;;;;18.25;13.16;98591.41;5058620;28;20535;-80
2021/03/09 02:49:16;;;;;;;60.67;23.67;;;;;;;17.83;13.69;98588.19;5055979;28;20033;-80
2021/03/09 02:51:44;;;;;;;68.70;25.92;;;;;;;17.96;13.56;98592.31;5059245;28;20033;-81
2021/03/09 02:54:13;;;;;;;67.50;27.50;;;;;;;17.66;13.70;98594.34;5071352;28;20036;-80
2021/03/09 02:56:40;;;;;;;56.50;22.77;;;;;;;17.88;13.84;98593.41;5070792;28;20488;-80
2021/03/09 02:59:10;;;;;;;65.35;22.60;;;;;;;18.09;13.58;98587.28;5039578;28;20029;-80
2021/03/09 03:01:37;;;;;;;62.40;21.90;;;;;;;18.21;13.22;98582.25;5059014;28;20037;-80
2021/03/09 03:04:05;;;;;;;54.28;19.48;;;;;;;17.89;13.54;98590.25;5055759;28;20075;-80
2021/03/09 03:06:38;;;;;;;52.20;20.17;;;;;;;17.95;13.59;98587.94;5062530;28;20036;-79
2021/03/09 03:09:05;;;;;;;57.38;21.00;;;;;;;17.71;13.59;98599.56;5057860;28;20488;-80
2021/03/09 03:11:33;;;;;;;52.95;19.25;;;;;;;17.60;13.79;98588.31;5063646;28;20036;-81
2021/03/09 03:14:05;;;;;;;59.92;22.27;;;;;;;17.73;13.42;98594.44;5056761;28;20067;-81
2021/03/09 03:16:34;;;;;;;60.00;22.88;;;;;;;17.43;13.72;98600.00;5063065;28;20510;-81
2021/03/09 03:19:02;;;;;;;55.45;20.70;;;;;;;17.31;13.38;98593.88;5064832;28;20021;-81
2021/03/09 03:21:29;;;;;;;53.22;19.33;;;;;;;17.49;13.93;98592.91;5061722;28;20044;-80
2021/03/09 03:24:00;;;;;;;56.60;20.65;;;;;;;17.77;13.29;98590.53;5060169;28;20032;-79
2021/03/09 03:26:28;;;;;;;51.60;20.38;;;;;;;17.79;13.24;98595.69;5060838;28;20025;-79
2021/03/09 03:28:56;;;;;;;50.45;20.30;;;;;;;17.59;13.21;98583.16;5062700;28;20048;-79
2021/03/09 03:31:22;;;;;;;57.53;20.67;;;;;;;17.80;13.39;98587.00;5070458;28;20025;-79
2021/03/09 03:33:49;;;;;;;52.42;21.67;;;;;;;17.90;13.63;98591.03;5059641;28;20114;-79
2021/03/09 03:36:17;;;;;;;42.13;15.18;;;;;;;17.77;13.56;98592.50;5057929;28;20029;-79
2021/03/09 03:38:43;;;;;;;46.65;17.33;;;;;;;17.68;13.60;98594.78;5061980;28;20025;-79
2021/03/09 03:41:11;;;;;;;39.83;15.63;;;;;;;17.49;13.75;98597.66;5059219;28;20043;-79
2021/03/09 03:43:38;;;;;;;46.03;16.20;;;;;;;17.66;13.40;98602.69;5062894;28;20120;-79
2021/03/09 03:46:06;;;;;;;49.45;19.63;;;;;;;17.75;13.36;98600.41;5063239;28;20526;-79
2021/03/09 03:48:34;;;;;;;45.97;19.15;;;;;;;17.69;13.29;98610.25;5065639;28;20036;-79
2021/03/09 03:51:02;;;;;;;46.03;18.60;;;;;;;17.63;13.16;98597.88;5045196;28;20043;-79
2021/03/09 03:53:54;;;;;;;38.03;16.35;;;;;;;17.71;12.78;98603.13;5060253;28;20032;-79
2021/03/09 03:56:39;;;;;;;51.13;17.98;;;;;;;17.28;13.43;98595.41;5063310;28;20039;-79
2021/03/09 03:59:30;;;;;;;40.13;16.52;;;;;;;17.52;13.07;98591.41;5062865;28;20052;-79
2021/03/09 04:02:00;;;;;;;45.10;18.17;;;;;;;17.72;13.18;98593.63;5065008;28;20107;-79
2021/03/09 04:04:29;;;;;;;54.55;20.55;;;;;;;17.48;13.58;98596.09;5063331;28;20040;-79
2021/03/09 04:06:55;;;;;;;47.13;18.48;;;;;;;17.20;13.35;98591.75;5066515;28;20028;-79
2021/03/09 04:09:23;;;;;;;43.17;17.58;;;;;;;17.17;13.07;98603.59;5060749;28;20052;-79
2021/03/09 04:11:49;;;;;;;51.80;20.23;;;;;;;17.34;12.91;98598.69;5067199;28;20043;-79
2021/03/09 04:14:17;;;;;;;46.67;19.33;;;;;;;17.04;13.33;98599.44;5063427;28;20064;-80
2021/03/09 04:16:47;;;;;;;43.63;16.00;;;;;;;17.19;13.26;98604.03;5062083;28;20035;-79
2021/03/09 04:19:14;;;;;;;31.87;14.10;;;;;;;17.40;13.07;98594.38;5059287;28;20051;-79
2021/03/09 04:21:42;;;;;;;36.90;12.65;;;;;;;17.67;12.77;98590.38;5065686;28;20078;-80
2021/03/09 04:24:11;;;;;;;41.00;13.95;;;;;;;17.90;12.98;98591.03;5060497;28;20028;-79
2021/03/09 04:26:40;;;;;;;39.75;16.88;;;;;;;17.48;13.17;98602.41;5062754;28;20119;-79
2021/03/09 04:29:11;;;;;;;38.63;15.57;;;;;;;17.16;13.54;98596.44;5062068;28;20071;-80
2021/03/09 04:31:42;;;;;;;35.33;14.68;;;;;;;17.08;13.55;98593.97;5066381;28;20078;-80
2021/03/09 04:34:09;;;;;;;25.67;11.50;;;;;;;17.46;13.18;98593.66;5060522;28;20036;-80
2021/03/09 04:36:36;;;;;;;28.40;12.82;;;;;;;17.80;13.08;98591.75;5066337;28;20056;-80
2021/03/09 04:39:04;;;;;;;37.90;14.63;;;;;;;17.45;13.43;98599.59;5063541;28;20044;-80
2021/03/09 04:41:31;;;;;;;31.50;12.35;;;;;;;17.29;13.50;98602.56;5057834;28;20050;-80
2021/03/09 04:43:59;;;;;;;32.45;13.32;;;;;;;16.85;14.25;98601.53;5061046;28;20032;-80
2021/03/09 04:46:25;;;;;;;25.35;11.27;;;;;;;16.85;14.03;98569.03;5058484;28;20043;-80
2021/03/09 04:48:52;;;;;;;31.65;11.45;;;;;;;17.18;14.01;98602.41;5060633;28;20048;-80
2021/03/09 04:51:19;;;;;;;33.53;11.70;;;;;;;16.97;13.73;98604.88;5059672;28;20079;-80
2021/03/09 04:53:47;;;;;;;29.60;11.32;;;;;;;17.20;13.81;98608.38;5057642;28;20519;-80
2021/03/09 04:56:13;;;;;;;26.77;10.18;;;;;;;17.64;13.41;98605.81;5062010;28;20139;-80
2021/03/09 04:58:39;;;;;;;31.40;13.32;;;;;;;17.60;12.94;98606.94;5066044;28;20082;-80
2021/03/09 05:01:05;;;;;;;26.25;12.00;;;;;;;17.33;13.21;98602.63;5063461;28;20405;-80
2021/03/09 05:03:33;;;;;;;31.08;11.38;;;;;;;17.16;13.37;98607.53;5060699;28;20400;-80
2021/03/09 05:05:59;;;;;;;33.13;11.90;;;;;;;17.41;13.27;98607.09;5059063;28;20075;-80
2021/03/09 05:08:25;;;;;;;39.55;13.05;;;;;;;17.64;13.03;98603.03;5062051;28;20427;-80
2021/03/09 05:10:53;;;;;;;39.45;12.55;;;;;;;17.72;12.85;98613.06;5064110;28;20461;-80
2021/03/09 05:13:20;;;;;;;40.80;15.50;;;;;;;17.43;13.25;98610.28;5060061;28;20094;-80
2021/03/09 05:15:46;;;;;;;34.72;14.13;;;;;;;17.25;13.46;98607.25;5059283;28;20028;-80
2021/03/09 05:18:13;;;;;;;33.83;12.38;;;;;;;17.38;13.24;98619.75;5060392;28;20094;-80
2021/03/09 05:20:40;;;;;;;36.17;12.40;;;;;;;17.69;12.96;98616.59;5062250;28;20029;-80
2021/03/09 05:23:06;;;;;;;30.98;12.10;;;;;;;18.07;12.69;98615.44;5061978;28;20032;-79
2021/03/09 05:25:33;;;;;;;21.88;9.65;;;;;;;18.30;12.66;98613.31;5061779;28;20025;-80
2021/03/09 05:27:59;;;;;;;33.63;12.95;;;;;;;18.26;12.28;98615.25;5061605;28;20599;-80
2021/03/09 05:30:25;;;;;;;30.30;12.27;;;;;;;18.09;12.46;98613.09;5064919;28;20107;-80
2021/03/09 05:32:52;;;;;;;31.83;12.85;;;;;;;18.14;12.82;98607.19;5058886;28;20112;-80
2021/03/09 05:35:18;;;;;;;36.58;13.73;;;;;;;18.24;12.64;98608.47;5070460;28;20043;-80
2021/03/09 05:37:46;;;;;;;40.85;15.00;;;;;;;18.47;12.35;98609.13;5082505;28;20074;-79
2021/03/09 05:40:15;;;;;;;36.63;12.90;;;;;;;18.45;12.24;98612.31;5043108;28;20063;-79
2021/03/09 05:42:45;;;;;;;41.05;15.18;;;;;;;18.63;12.28;98615.22;5064816;28;20029;-79
2021/03/09 05:45:12;;;;;;;31.08;11.98;;;;;;;18.42;12.62;98610.25;5068755;28;20123;-79
2021/03/09 05:47:39;;;;;;;30.55;12.43;;;;;;;18.50;12.53;98613.94;5074469;28;20062;-79
2021/03/09 05:50:05;;;;;;;43.92;13.55;;;;;;;18.38;12.86;98616.97;5092392;28;20153;-79
2021/03/09 05:52:35;;;;;;;32.97;12.63;;;;;;;18.59;12.54;98612.44;5092616;28;20418;-80
2021/03/09 05:55:01;;;;;;;35.70;11.82;;;;;;;18.95;12.41;98612.72;5069653;28;20044;-79
2021/03/09 05:57:27;;;;;;;34.08;14.30;;;;;;;19.25;12.34;98616.88;5061042;28;20037;-80
2021/03/09 05:59:55;;;;;;;41.95;15.70;;;;;;;18.89;12.59;98617.03;5049010;28;20106;-81
2021/03/09 06:02:22;;;;;;;35.95;13.45;;;;;;;19.23;12.54;98624.00;5048235;28;20070;-80
2021/03/09 06:04:48;;;;;;;46.88;17.08;;;;;;;19.15;12.80;98625.16;5063514;28;20488;-80
2021/03/09 06:07:18;;;;;;;34.33;13.82;;;;;;;18.83;12.97;98627.72;5057829;28;20099;-81
2021/03/09 06:09:45;;;;;;;30.93;12.60;;;;;;;19.10;13.05;98633.88;5084502;28;20025;-81
2021/03/09 06:12:15;;;;;;;32.47;12.20;;;;;;;19.57;12.83;98636.59;5072481;28;20032;-79
2021/03/09 06:14:44;;;;;;;29.85;12.00;;;;;;;19.90;12.87;98636.34;5085486;28;20048;-80
2021/03/09 06:17:21;;;;;;;24.83;10.60;;;;;;;19.98;12.84;98632.38;5093096;28;20376;-81
2021/03/09 06:19:48;;;;;;;32.30;14.30;;;;;;;20.02;12.85;98643.53;5067384;28;20036;-80
2021/03/09 06:22:16;;;;;;;29.55;12.98;;;;;;;20.04;13.23;98646.72;5068063;28;20040;-80
2021/03/09 06:24:43;;;;;;;33.63;13.25;;;;;;;20.13;13.23;98649.94;5063352;28;20032;-80
2021/03/09 06:27:30;;;;;;;38.35;14.60;;;;;;;20.02;13.96;98640.75;5060782;28;20040;-80
2021/03/09 06:29:58;;;;;;;43.85;15.35;;;;;;;20.26;13.81;98651.19;5064525;28;20033;-80
2021/03/09 06:32:25;;;;;;;31.42;15.27;;;;;;;20.45;13.71;98650.84;5073005;28;20390;-80
2021/03/09 06:34:53;;;;;;;25.83;12.55;;;;;;;19.86;13.73;98657.03;5060983;28;20045;-80
2021/03/09 06:37:25;;;;;;;39.65;14.38;;;;;;;19.78;14.23;98661.75;5059455;28;20036;-80
2021/03/09 06:39:54;;;;;;;35.15;15.07;;;;;;;19.42;14.42;98664.75;5067568;28;20115;-80
2021/03/09 06:42:37;;;;;;;36.42;13.52;;;;;;;19.37;14.71;98662.31;5075520;28;20032;-80
2021/03/09 06:45:10;;;;;;;42.58;16.23;;;;;;;19.16;15.07;98666.50;5079378;28;20419;-80
2021/03/09 06:47:52;;;;;;;28.50;13.85;;;;;;;19.42;14.86;98671.09;5058624;28;20397;-80
2021/03/09 06:50:20;;;;;;;28.83;13.02;;;;;;;19.82;14.47;98672.91;5059040;28;20040;-80
2021/03/09 06:53:02;;;;;;;30.38;12.90;;;;;;;20.37;14.21;98677.13;5057798;28;20029;-79
2021/03/09 06:55:33;;;;;;;31.50;12.27;;;;;;;20.55;14.45;98675.19;5068464;28;20481;-81
2021/03/09 06:58:09;;;;;;;27.63;13.40;;;;;;;20.15;14.41;98674.63;5072453;28;20080;-80
2021/03/09 07:00:35;;;;;;;24.05;10.40;;;;;;;20.04;14.24;98677.41;5073236;28;20045;-80
2021/03/09 07:03:01;;;;;;;27.30;11.45;;;;;;;19.75;14.62;98679.25;5064628;28;20507;-80
2021/03/09 07:05:27;;;;;;;25.50;11.48;;;;;;;19.65;14.46;98673.63;5057161;28;20481;-81
2021/03/09 07:07:53;;;;;;;19.45;10.35;;;;;;;20.10;15.13;98675.81;5064937;28;20037;-81
2021/03/09 07:10:23;;;;;;;26.92;12.30;;;;;;;20.66;14.19;98681.56;5063330;28;20056;-81
2021/03/09 07:12:49;;;;;;;27.52;11.82;;;;;;;20.45;14.43;98681.53;5060514;28;20029;-83
2021/03/09 07:15:18;;;;;;;26.67;12.68;;;;;;;20.52;14.53;98680.72;5063918;28;20024;-84
2021/03/09 07:17:46;;;;;;;25.88;12.52;;;;;;;20.67;14.72;98683.16;5067026;28;20111;-82
2021/03/09 07:20:15;;;;;;;29.75;12.32;;;;;;;20.77;14.41;98673.19;5062045;28;20421;-83
2021/03/09 07:22:44;;;;;;;69.25;28.70;;;;;;;20.69;14.44;98679.97;5067978;28;20029;-83
2021/03/09 07:25:20;;;;;;;29.48;12.45;;;;;;;20.66;14.29;98681.56;5076842;28;20024;-83
2021/03/09 07:27:49;;;;;;;27.52;11.27;;;;;;;21.12;14.32;98678.81;5073169;28;20044;-85
2021/03/09 07:30:20;;;;;;;27.90;12.48;;;;;;;21.39;14.38;98673.63;5068624;28;20376;-84
2021/03/09 07:32:51;;;;;;;27.33;12.50;;;;;;;21.70;13.69;98683.13;5067774;28;20033;-85
2021/03/09 07:35:21;;;;;;;30.63;12.70;;;;;;;21.95;14.06;98678.28;5068571;28;20118;-83
2021/03/09 07:37:48;;;;;;;25.83;12.57;;;;;;;22.13;13.92;98680.97;5064996;28;20539;-83
2021/03/09 07:40:17;;;;;;;33.70;15.85;;;;;;;21.88;13.83;98675.50;5065030;28;20041;-84
2021/03/09 07:42:44;;;;;;;28.95;11.82;;;;;;;22.06;13.83;98676.22;5051311;28;20037;-83
2021/03/09 07:45:13;;;;;;;24.23;10.52;;;;;;;22.44;12.71;98682.84;5067124;28;20488;-83
2021/03/09 07:47:52;;;;;;;29.92;14.10;;;;;;;21.89;13.31;98679.91;5044750;28;20086;-83
2021/03/09 07:50:20;;;;;;;26.30;12.18;;;;;;;21.86;13.51;98677.91;5066684;28;20117;-83
2021/03/09 07:52:58;;;;;;;24.35;10.88;;;;;;;21.99;13.21;98676.25;5063923;28;20492;-83
2021/03/09 07:55:28;;;;;;;27.92;11.98;;;;;;;22.19;12.87;98677.38;5059742;28;20111;-92
2021/03/09 07:58:26;;;;;;;31.45;13.57;;;;;;;22.02;13.27;98669.84;5064496;28;20029;-85
2021/03/09 08:01:01;;;;;;;32.40;14.38;;;;;;;21.82;13.40;98677.88;5065286;28;20033;-86
2021/03/09 08:03:32;;;;;;;29.23;13.38;;;;;;;21.68;13.62;98677.91;5066491;28;20028;-85
2021/03/09 08:06:07;;;;;;;30.90;13.00;;;;;;;21.91;13.86;98674.69;5060164;28;20040;-86
2021/03/09 08:08:42;;;;;;;28.45;12.77;;;;;;;22.43;13.14;98679.22;5063385;28;20028;-85
2021/03/09 08:11:28;;;;;;;31.08;13.52;;;;;;;22.73;12.85;98669.50;5060607;28;20064;-85
2021/03/09 08:14:06;;;;;;;29.80;13.30;;;;;;;22.73;12.98;98673.09;5056006;28;20500;-85
2021/03/09 08:16:42;;;;;;;45.10;17.48;;;;;;;22.20;13.36;98664.97;5066234;28;20033;-86
2021/03/09 08:19:30;;;;;;;43.45;20.05;;;;;;;22.13;13.85;98659.41;5068744;28;20021;-86
2021/03/09 08:22:01;;;;;;;45.85;21.90;;;;;;;22.35;13.50;98660.91;5064923;28;20086;-85
2021/03/09 08:24:42;;;;;;;28.25;13.85;;;;;;;22.78;13.02;98658.63;5066161;28;20119;-87
2021/03/09 08:27:28;;;;;;;41.65;19.25;;;;;;;22.33;13.31;98659.72;5071739;28;20017;-88
2021/03/09 08:30:17;;;;;;;36.00;18.15;;;;;;;21.54;14.07;98658.41;5056241;28;20043;-87
2021/03/09 08:32:43;;;;;;;35.53;15.77;;;;;;;22.04;13.99;98653.47;5063196;28;20033;-84
2021/03/09 08:35:12;;;;;;;28.88;13.02;;;;;;;22.78;13.27;98655.84;5063015;28;20039;-84
2021/03/09 08:37:50;;;;;;;35.72;15.23;;;;;;;22.49;13.37;98657.22;5049284;28;20037;-84
2021/03/09 08:40:23;;;;;;;31.02;14.10;;;;;;;22.71;13.79;98652.31;5059022;28;20500;-85
2021/03/09 08:43:01;;;;;;;34.75;14.88;;;;;;;22.72;13.61;98643.50;5060915;28;20111;-85
2021/03/09 08:45:43;;;;;;;29.63;13.50;;;;;;;22.59;13.56;98650.78;5062504;28;20033;-85
2021/03/09 08:48:11;;;;;;;32.92;14.40;;;;;;;22.98;12.66;98644.88;5066511;28;20087;-85
2021/03/09 08:50:37;;;;;;;34.65;14.25;;;;;;;23.60;12.74;98648.31;5063981;28;20033;-84
2021/03/09 08:53:03;;;;;;;32.75;14.30;;;;;;;23.67;13.04;98651.03;5064123;28;20061;-85
2021/03/09 08:55:30;;;;;;;37.17;16.88;;;;;;;23.29;12.93;98641.00;5063244;28;20103;-86
2021/03/09 08:57:56;;;;;;;32.38;12.23;;;;;;;23.64;12.68;98651.09;5063636;28;20490;-86
2021/03/09 09:00:22;;;;;;;27.35;12.25;;;;;;;23.39;12.78;98642.91;5066196;28;20119;-86
2021/03/09 09:02:49;;;;;;;34.05;13.20;;;;;;;22.93;12.42;98645.31;5059215;28;20050;-86
2021/03/09 09:05:16;;;;;;;22.95;8.93;;;;;;;21.58;13.77;98644.44;5063514;28;20078;-86
2021/03/09 09:07:43;;;;;;;26.40;10.50;;;;;;;22.23;13.77;98644.59;5063250;28;20028;-86
2021/03/09 09:10:12;;;;;;;25.42;10.73;;;;;;;23.09;13.24;98640.78;5049679;28;20083;-86
2021/03/09 09:12:41;;;;;;;23.60;9.85;;;;;;;23.80;12.58;98642.88;5063971;28;20058;-86
2021/03/09 09:15:10;;;;;;;26.95;11.00;;;;;;;23.66;12.42;98640.25;5065546;28;20395;-86
2021/03/09 09:17:38;;;;;;;28.95;12.20;;;;;;;24.35;12.30;98642.59;5058959;28;20033;-86
2021/03/09 09:20:13;;;;;;;23.63;9.20;;;;;;;24.31;12.35;98639.84;5043443;28;20028;-86
2021/03/09 09:22:39;;;;;;;16.30;7.25;;;;;;;24.61;11.06;98641.81;5064858;28;20042;-86
2021/03/09 09:25:15;;;;;;;15.88;6.85;;;;;;;24.34;11.43;98638.22;5059337;28;20488;-87
2021/03/09 09:27:51;;;;;;;15.57;5.60;;;;;;;23.71;12.47;98634.19;5062217;28;20060;-86
2021/03/09 09:30:21;;;;;;;12.20;5.28;;;;;;;24.16;12.16;98632.03;5042675;28;20408;-86
2021/03/09 09:32:53;;;;;;;11.88;4.03;;;;;;;23.95;11.09;98633.88;5058118;28;20048;-86
2021/03/09 09:35:22;;;;;;;10.43;4.45;;;;;;;23.86;12.02;98630.78;5062283;28;20586;-86
2021/03/09 09:37:51;;;;;;;11.90;4.97;;;;;;;23.54;12.05;98635.97;5056547;28;20032;-86
2021/03/09 09:40:20;;;;;;;11.13;4.65;;;;;;;23.20;11.85;98638.66;5062592;28;20031;-87
2021/03/09 09:43:04;;;;;;;6.80;3.35;;;;;;;23.72;11.10;98635.75;5064698;28;20037;-87
2021/03/09 09:45:33;;;;;;;15.35;8.23;;;;;;;22.24;12.60;98632.19;5061193;28;20515;-86
2021/03/09 09:48:00;;;;;;;10.75;5.68;;;;;;;22.83;13.21;98635.81;5044890;28;21845;-86
2021/03/09 09:50:27;;;;;;;7.45;3.53;;;;;;;23.14;13.40;98631.13;5062650;28;20089;-86
2021/03/09 09:53:01;;;;;;;7.15;2.72;;;;;;;23.66;12.38;98626.22;5059076;28;20029;-85
2021/03/09 09:55:29;;;;;;;10.13;3.92;;;;;;;24.29;11.61;98622.63;5061079;28;20028;-86
2021/03/09 09:57:58;;;;;;;6.72;3.25;;;;;;;24.03;11.15;98623.34;5059377;28;20043;-83
2021/03/09 10:00:34;;;;;;;7.25;4.00;;;;;;;24.20;11.79;98621.56;5083645;27;20400;-82
2021/03/09 10:03:07;;;;;;;7.07;3.30;;;;;;;24.54;11.73;98616.66;5082505;28;20035;-84
2021/03/09 10:05:34;;;;;;;8.15;4.00;;;;;;;22.86;11.64;98615.38;5098471;28;20045;-84
2021/03/09 10:08:00;;;;;;;5.78;1.95;;;;;;;23.34;12.01;98615.31;5079823;28;20090;-84
2021/03/09 10:10:27;;;;;;;3.70;1.70;;;;;;;24.29;11.80;98616.22;5085997;28;20042;-84
2021/03/09 10:12:53;;;;;;;8.30;2.92;;;;;;;20.10;12.76;98624.81;5082519;28;20389;-84
2021/03/09 10:15:19;;;;;;;3.17;1.63;;;;;;;21.39;13.52;98612.16;5086427;28;20029;-84
2021/03/09 10:17:45;;;;;;;3.78;1.60;;;;;;;23.10;12.37;98608.78;5083228;28;20040;-83
2021/03/09 10:20:24;;;;;;;5.15;2.63;;;;;;;24.45;11.09;98608.75;5088395;28;20078;-84
2021/03/09 10:23:01;;;;;;;2.20;1.30;;;;;;;25.25;11.19;98596.63;5084814;28;20479;-83
2021/03/09 10:25:27;;;;;;;3.05;1.48;;;;;;;24.72;10.28;98600.31;5080581;28;20107;-84
2021/03/09 10:28:12;;;;;;;1.88;1.00;;;;;;;25.08;10.19;98586.47;5084818;28;20032;-84
2021/03/09 10:30:42;;;;;;;3.78;1.40;;;;;;;22.68;9.68;98595.91;5083918;28;20029;-83
2021/03/09 10:33:12;;;;;;;1.83;1.03;;;;;;;;;;5080975;28;20047;-83
2021/03/09 10:36:12;;;;;;;1.08;0.80;;;;;;;24.42;9.13;98589.16;5083547;28;20325;-83
2021/03/09 10:38:38;;;;;;;3.38;0.80;;;;;;;24.36;10.37;98599.28;5080804;28;20552;-83
2021/03/09 10:41:05;;;;;;;1.92;1.10;;;;;;;25.52;10.27;98582.47;5081320;28;20032;-83
2021/03/09 10:43:45;;;;;;;2.75;1.58;;;;;;;25.66;8.55;98576.56;5083178;28;20025;-83
2021/03/09 10:46:12;;;;;;;1.67;1.13;;;;;;;24.04;9.57;98582.84;5079449;28;20047;-85
2021/03/09 10:48:40;;;;;;;1.65;1.20;;;;;;;22.96;10.04;98582.91;5084080;28;20399;-83
2021/03/09 10:51:19;;;;;;;4.32;2.47;;;;;;;20.38;12.51;98589.47;5087248;28;20033;-83
2021/03/09 10:53:47;;;;;;;7.03;2.35;;;;;;;21.30;13.00;98576.28;5084281;28;20111;-86
2021/03/09 10:56:14;;;;;;;10.30;5.30;;;;;;;17.80;15.23;98586.19;5076880;28;20045;-84
2021/03/09 10:58:40;;;;;;;7.22;3.60;;;;;;;19.65;14.84;98585.25;5080735;28;20055;-85
2021/03/09 11:01:07;;;;;;;7.32;3.70;;;;;;;19.87;15.79;98595.31;5081933;28;20036;-84
2021/03/09 11:03:33;;;;;;;9.90;5.75;;;;;;;17.74;17.29;98587.69;5086284;28;20482;-83
2021/03/09 11:05:59;;;;;;;6.68;4.35;;;;;;;18.32;15.33;98588.69;5082471;28;20506;-83
2021/03/09 11:08:26;;;;;;;11.32;5.63;;;;;;;16.02;18.77;98594.13;5084053;28;20064;-83
2021/03/09 11:10:53;;;;;;;8.10;4.22;;;;;;;16.75;16.71;98589.09;5082651;28;20024;-83
2021/03/09 11:13:20;;;;;;;8.07;4.00;;;;;;;17.10;16.27;98592.41;5074491;28;20047;-83
2021/03/09 11:15:46;;;;;;;7.55;3.17;;;;;;;19.04;14.81;98574.22;5071088;28;20285;-83
2021/03/09 11:18:13;;;;;;;7.13;4.47;;;;;;;17.12;15.45;98559.53;5071404;28;20396;-83
2021/03/09 11:20:41;;;;;;;8.93;4.30;;;;;;;15.50;16.80;98581.66;5067174;28;20032;-84
2021/03/09 11:23:07;;;;;;;6.70;3.80;;;;;;;15.58;16.94;98583.41;5062012;28;20036;-83
2021/03/09 11:25:36;;;;;;;7.88;3.60;;;;;;;16.29;16.05;98580.00;5066946;28;20029;-83
2021/03/09 11:28:05;;;;;;;10.18;4.22;;;;;;;16.33;15.75;98574.53;5067474;28;20498;-83
2021/03/09 11:30:31;;;;;;;8.93;4.53;;;;;;;15.95;16.12;98569.09;5065832;28;20364;-83
2021/03/09 11:32:57;;;;;;;9.63;4.70;;;;;;;16.44;16.03;98564.41;5066356;28;20486;-83